Terminal Aerodrome Forecast
Issued by NWS Missoula, MT

Home | Current Version | Previous Version | Text Only | Print | Product List | Glossary On
Versions: 1 2 3 4 5 6 7 8 9 10 11 12 13 14 15 16 17
215
FTUS45 KMSO 241120
TAFGPI
TAF
KGPI 241120Z 2412/2512 18007KT 3SM -SN BR BKN005 OVC015
     FM241400 16008KT 5SM -RASN BR BKN020 OVC030
     FM242100 16005KT P6SM -SHRA OVC035
     FM250100 18005KT P6SM VCSH BKN035 OVC060=

USA.gov is the U.S. government's official web portal to all federal, state and local government web resources and services.